Terminal Aerodrome Forecast
Issued by NWS

Home | Current Version | Previous Version | Text Only | Print | Product List | Glossary Off
Versions: 1 2 3 4 5 6 7 8 9 10 11 12 13 14 15 16 17 18 19

164
FTUS43 KGRB 211045 AAB
TAFCWA
TAF AMD
KCWA 211045Z 2111/2206 17009KT P6SM OVC006 WS012/23035KT
      TEMPO 2111/2112 6SM BR BKN004
     FM211200 17009KT P6SM OVC006 WS012/23035KT
      TEMPO 2112/2115 31025G40KT 1SM TSRA BR BKN004CB
     FM211600 22009G16KT P6SM BKN014
     FM211800 23011G22KT P6SM SCT030
     FM220200 24003KT 5SM BR SCT250=

USA.gov is the U.S. government's official web portal to all federal, state and local government web resources and services.